createdAt,value
2022-08-03T00:13:40.820Z,22.07
2022-08-03T00:16:08.802Z,22.07
2022-08-03T00:18:36.547Z,22.08
2022-08-03T00:21:04.463Z,22.08
2022-08-03T00:23:50.953Z,22.05
2022-08-03T00:26:20.084Z,22.00
2022-08-03T00:28:49.302Z,21.98
2022-08-03T00:31:23.136Z,21.94
2022-08-03T00:34:06.149Z,21.93
2022-08-03T00:36:34.701Z,21.87
2022-08-03T00:39:02.454Z,21.83
2022-08-03T00:41:30.229Z,21.75
2022-08-03T00:43:59.336Z,21.73
2022-08-03T00:46:27.063Z,21.68
2022-08-03T00:48:55.395Z,21.70
2022-08-03T00:51:23.850Z,21.67
2022-08-03T00:53:52.269Z,21.64
2022-08-03T00:56:20.070Z,21.62
2022-08-03T00:58:48.436Z,21.57
2022-08-03T01:01:17.564Z,21.53
2022-08-03T01:03:45.640Z,21.49
2022-08-03T01:06:19.292Z,21.48
2022-08-03T01:08:53.523Z,21.45
2022-08-03T01:11:28.483Z,21.43
2022-08-03T01:14:19.036Z,21.33
2022-08-03T01:16:56.961Z,21.27
2022-08-03T01:19:42.981Z,21.29
2022-08-03T01:22:24.396Z,21.35
2022-08-03T01:25:00.561Z,21.37
2022-08-03T01:27:34.478Z,21.24
2022-08-03T01:30:07.216Z,21.17
2022-08-03T01:32:53.470Z,21.12
2022-08-03T01:35:34.566Z,21.07
2022-08-03T01:38:11.025Z,20.97
2022-08-03T01:40:41.654Z,20.93
2022-08-03T01:43:11.746Z,20.88
2022-08-03T01:45:41.549Z,20.89
2022-08-03T01:48:11.073Z,20.89
2022-08-03T01:50:39.775Z,20.83
2022-08-03T01:53:10.006Z,20.80
2022-08-03T01:55:39.469Z,20.73
2022-08-03T01:58:09.424Z,20.69
2022-08-03T02:00:38.584Z,20.56
2022-08-03T02:03:09.408Z,20.46
2022-08-03T02:05:39.071Z,20.40
2022-08-03T02:08:11.684Z,20.38
2022-08-03T02:10:43.234Z,20.37
2022-08-03T02:13:12.147Z,20.47
2022-08-03T02:15:40.299Z,20.53
2022-08-03T02:18:10.929Z,20.49
2022-08-03T02:20:39.959Z,20.55
2022-08-03T02:23:08.477Z,20.56
2022-08-03T02:25:43.099Z,20.54
2022-08-03T02:28:13.381Z,20.52
2022-08-03T02:30:46.823Z,20.47
2022-08-03T02:33:26.005Z,20.45
2022-08-03T02:35:54.932Z,20.43
2022-08-03T02:38:27.152Z,20.42
2022-08-03T02:40:57.334Z,20.42
2022-08-03T02:43:26.393Z,20.41
2022-08-03T02:45:55.453Z,20.35
2022-08-03T02:48:29.083Z,20.30
2022-08-03T02:51:00.145Z,20.28
2022-08-03T02:53:29.887Z,20.23
2022-08-03T02:55:59.124Z,20.21
2022-08-03T02:58:27.232Z,20.19
2022-08-03T03:00:56.189Z,20.16
2022-08-03T03:03:27.613Z,20.12
2022-08-03T03:05:59.788Z,20.13
2022-08-03T03:08:29.221Z,20.11
2022-08-03T03:10:59.269Z,20.09
2022-08-03T03:13:29.270Z,20.07
2022-08-03T03:16:00.635Z,20.08
2022-08-03T03:18:32.398Z,20.08
2022-08-03T03:21:01.653Z,20.08
2022-08-03T03:23:31.637Z,20.08
2022-08-03T03:26:02.294Z,20.06
2022-08-03T03:28:31.593Z,20.02
2022-08-03T03:30:59.693Z,20.02
2022-08-03T03:33:28.583Z,19.97
2022-08-03T03:35:59.541Z,19.95
2022-08-03T03:38:27.387Z,19.92
2022-08-03T03:40:55.727Z,19.90
2022-08-03T03:43:24.913Z,19.88
2022-08-03T03:45:53.900Z,19.87
2022-08-03T03:48:22.126Z,19.85
2022-08-03T03:50:51.059Z,19.81
2022-08-03T03:53:20.457Z,19.79
2022-08-03T03:56:01.542Z,19.66
2022-08-03T03:58:32.059Z,19.65
2022-08-03T04:00:59.952Z,19.65
2022-08-03T04:03:27.752Z,19.57
2022-08-03T04:06:12.939Z,19.52
2022-08-03T04:08:59.535Z,19.49
2022-08-03T04:11:31.870Z,19.40
2022-08-03T04:14:05.079Z,19.29
2022-08-03T04:16:37.989Z,19.19
2022-08-03T04:19:11.491Z,19.07
2022-08-03T04:21:42.490Z,19.06
2022-08-03T04:24:14.853Z,19.01
2022-08-03T04:26:50.876Z,18.96
2022-08-03T04:29:21.919Z,19.01
2022-08-03T04:31:51.300Z,19.06
2022-08-03T04:34:19.498Z,19.11
2022-08-03T04:36:51.081Z,19.14
2022-08-03T04:39:26.511Z,19.20
2022-08-03T04:42:07.550Z,19.20
2022-08-03T04:44:45.597Z,19.21
2022-08-03T04:47:13.337Z,19.23
2022-08-03T04:49:41.623Z,19.20
2022-08-03T04:52:10.388Z,19.27
2022-08-03T04:54:50.231Z,19.39
2022-08-03T04:57:23.134Z,19.45
2022-08-03T05:00:01.413Z,19.49
2022-08-03T05:02:31.674Z,19.58
2022-08-03T05:04:59.950Z,19.61
2022-08-03T05:07:35.652Z,19.69
2022-08-03T05:10:14.817Z,19.75
2022-08-03T05:12:45.105Z,19.85
2022-08-03T05:15:13.220Z,19.91
2022-08-03T05:17:41.296Z,20.00
2022-08-03T05:20:10.542Z,20.09
2022-08-03T05:22:38.777Z,20.17
2022-08-03T05:25:08.710Z,20.23
2022-08-03T05:27:36.526Z,20.30
2022-08-03T05:30:29.652Z,20.38
2022-08-03T05:32:53.430Z,20.52
2022-08-03T05:35:55.787Z,20.59
2022-08-03T05:38:09.644Z,20.69
2022-08-03T05:40:39.680Z,20.79
2022-08-03T05:43:24.437Z,20.89
2022-08-03T05:46:12.244Z,21.00
2022-08-03T05:48:40.431Z,21.16
2022-08-03T05:51:11.753Z,21.27
2022-08-03T05:53:40.418Z,21.38
2022-08-03T05:56:13.616Z,21.47
2022-08-03T05:58:42.870Z,21.58
2022-08-03T06:01:10.701Z,21.64
2022-08-03T06:03:38.444Z,21.74
2022-08-03T06:06:06.280Z,21.84
2022-08-03T06:08:34.055Z,21.92
2022-08-03T06:11:02.091Z,22.02
2022-08-03T06:13:31.185Z,22.11
2022-08-03T06:15:58.944Z,22.19
2022-08-03T06:18:26.828Z,22.26
2022-08-03T06:20:55.114Z,22.34
2022-08-03T06:23:53.947Z,22.41
2022-08-03T06:26:13.298Z,22.52
2022-08-03T06:28:52.733Z,22.56
2022-08-03T06:31:21.949Z,22.67
2022-08-03T06:34:32.989Z,22.75
2022-08-03T06:36:37.532Z,22.85
2022-08-03T06:39:06.200Z,22.91
2022-08-03T06:41:37.241Z,22.96
2022-08-03T06:44:07.398Z,23.05
2022-08-03T06:46:35.547Z,23.11
2022-08-03T06:49:03.323Z,23.19
2022-08-03T06:52:06.127Z,23.29
2022-08-03T06:54:18.910Z,23.44
2022-08-03T06:56:46.654Z,23.52
2022-08-03T07:00:07.774Z,23.63
2022-08-03T07:02:03.798Z,23.73
2022-08-03T07:04:31.609Z,23.81
2022-08-03T07:06:59.441Z,23.90
2022-08-03T07:09:27.204Z,23.98
2022-08-03T07:11:55.177Z,24.11
2022-08-03T07:14:24.357Z,24.21
2022-08-03T07:16:52.082Z,24.31
2022-08-03T07:19:19.812Z,24.43
2022-08-03T07:21:47.706Z,24.57
2022-08-03T07:24:15.506Z,24.67
2022-08-03T07:26:43.404Z,24.73
2022-08-03T07:29:15.261Z,24.84
2022-08-03T07:31:44.589Z,24.95
2022-08-03T07:34:12.751Z,25.03
2022-08-03T07:36:40.496Z,25.15
2022-08-03T07:39:15.343Z,25.24
2022-08-03T07:41:46.394Z,25.35
2022-08-03T07:44:14.526Z,25.43
2022-08-03T07:46:42.453Z,25.53
2022-08-03T07:49:11.735Z,25.64
2022-08-03T07:51:40.278Z,25.75
2022-08-03T07:54:10.134Z,25.84
2022-08-03T07:56:38.438Z,25.97
2022-08-03T07:59:06.212Z,26.11
2022-08-03T08:01:36.647Z,26.19
2022-08-03T08:04:04.654Z,26.29
2022-08-03T08:06:34.082Z,26.36
2022-08-03T08:09:02.382Z,26.53
2022-08-03T08:11:33.989Z,26.69
2022-08-03T08:14:05.496Z,26.91
2022-08-03T08:16:33.324Z,27.11
2022-08-03T08:19:02.081Z,27.23
2022-08-03T08:21:53.000Z,27.42
2022-08-03T08:24:20.353Z,27.75
2022-08-03T08:26:48.350Z,27.93
2022-08-03T08:29:16.091Z,28.16
2022-08-03T08:31:43.896Z,28.41
2022-08-03T08:34:11.572Z,28.55
2022-08-03T08:36:39.295Z,28.83
2022-08-03T08:39:07.076Z,29.11
2022-08-03T08:41:36.270Z,29.25
2022-08-03T08:44:04.176Z,29.41
2022-08-03T08:46:33.872Z,29.59
2022-08-03T08:49:04.570Z,29.79
2022-08-03T08:51:54.435Z,29.93
2022-08-03T08:54:26.977Z,30.12
2022-08-03T08:56:59.813Z,30.29
2022-08-03T08:59:49.620Z,30.45
2022-08-03T09:02:16.353Z,30.58
2022-08-03T09:04:45.627Z,30.73
2022-08-03T09:07:20.183Z,30.82
2022-08-03T09:10:11.239Z,31.02
2022-08-03T09:12:44.474Z,31.28
2022-08-03T09:15:23.485Z,31.38
2022-08-03T09:17:52.714Z,31.59
2022-08-03T09:20:22.424Z,31.74
2022-08-03T09:22:59.074Z,31.90
2022-08-03T09:25:34.529Z,32.08
2022-08-03T09:28:09.122Z,32.13
2022-08-03T09:30:38.966Z,32.26
2022-08-03T09:33:08.373Z,32.25
2022-08-03T09:35:58.135Z,32.48
2022-08-03T09:38:27.481Z,32.56
2022-08-03T09:40:59.873Z,32.61
2022-08-03T09:43:29.975Z,32.77
2022-08-03T09:46:04.804Z,32.89
2022-08-03T09:48:35.011Z,33.00
2022-08-03T09:51:12.847Z,33.21
2022-08-03T09:53:58.540Z,33.39
2022-08-03T09:56:39.570Z,33.58
2022-08-03T09:59:08.837Z,33.73
2022-08-03T10:01:38.812Z,33.87
2022-08-03T10:04:06.670Z,34.02
2022-08-03T10:06:34.521Z,34.13
2022-08-03T10:09:08.031Z,34.25
2022-08-03T10:11:41.191Z,34.30
2022-08-03T10:14:18.711Z,34.43
2022-08-03T10:16:47.560Z,34.51
2022-08-03T10:19:16.138Z,34.66
2022-08-03T10:21:49.373Z,34.69
2022-08-03T10:24:21.293Z,34.85
2022-08-03T10:26:50.759Z,35.07
2022-08-03T10:29:24.780Z,35.24
2022-08-03T10:31:58.140Z,35.35
2022-08-03T10:34:28.140Z,35.49
2022-08-03T10:36:59.806Z,35.53
2022-08-03T10:39:30.769Z,35.65
2022-08-03T10:42:00.065Z,35.75
2022-08-03T10:44:38.345Z,35.85
2022-08-03T10:47:06.728Z,35.97
2022-08-03T10:49:35.706Z,35.89
2022-08-03T10:52:11.192Z,35.84
2022-08-03T10:54:57.105Z,35.81
2022-08-03T10:57:49.731Z,35.93
2022-08-03T11:00:20.917Z,35.98
2022-08-03T11:03:07.124Z,36.12
2022-08-03T11:05:37.516Z,36.31
2022-08-03T11:08:29.310Z,36.34
2022-08-03T11:11:02.334Z,36.47
2022-08-03T11:13:33.494Z,36.60
2022-08-03T11:16:21.908Z,36.73
2022-08-03T11:18:57.889Z,36.70
2022-08-03T11:22:01.347Z,36.86
2022-08-03T11:25:00.611Z,37.06
2022-08-03T11:27:30.862Z,37.06
2022-08-03T11:30:05.254Z,37.03
2022-08-03T11:32:58.381Z,36.90
2022-08-03T11:35:28.952Z,36.97
2022-08-03T11:38:11.876Z,37.05
2022-08-03T11:40:43.676Z,37.13
2022-08-03T11:43:34.797Z,36.96
2022-08-03T11:46:04.274Z,37.04
2022-08-03T11:48:38.736Z,37.00
2022-08-03T11:51:08.883Z,36.85
2022-08-03T11:53:42.045Z,36.95
2022-08-03T11:56:12.508Z,37.04
2022-08-03T11:59:16.705Z,37.02
2022-08-03T12:01:35.618Z,37.17
2022-08-03T12:04:06.238Z,37.23
2022-08-03T12:06:54.369Z,37.35
2022-08-03T12:09:22.446Z,37.28
2022-08-03T12:12:00.345Z,37.31
2022-08-03T12:14:48.455Z,37.46
2022-08-03T12:17:17.909Z,37.41
2022-08-03T12:19:47.406Z,37.69
2022-08-03T12:22:16.012Z,37.84
2022-08-03T12:24:46.806Z,37.85
2022-08-03T12:27:24.316Z,37.92
2022-08-03T12:29:58.627Z,38.01
2022-08-03T12:32:27.655Z,37.98
2022-08-03T12:35:00.836Z,37.72
2022-08-03T12:37:29.760Z,37.79
2022-08-03T12:40:02.660Z,37.96
2022-08-03T12:42:35.036Z,37.91
2022-08-03T12:45:21.541Z,37.92
2022-08-03T12:47:56.679Z,38.06
2022-08-03T12:50:31.483Z,38.04
2022-08-03T12:53:00.434Z,38.13
2022-08-03T12:56:02.347Z,38.23
2022-08-03T12:58:33.665Z,38.29
2022-08-03T13:01:04.731Z,38.37
2022-08-03T13:03:42.663Z,38.35
2022-08-03T13:06:15.764Z,38.22
2022-08-03T13:08:44.492Z,38.16
2022-08-03T13:11:55.508Z,38.13
2022-08-03T13:14:16.714Z,37.85
2022-08-03T13:16:47.545Z,37.70
2022-08-03T13:19:16.135Z,37.53
2022-08-03T13:22:01.659Z,37.28
2022-08-03T13:24:32.045Z,37.31
2022-08-03T13:26:59.993Z,37.47
2022-08-03T13:29:27.708Z,37.48
2022-08-03T13:31:55.574Z,37.59
2022-08-03T13:34:24.108Z,37.53
2022-08-03T13:37:08.365Z,37.60
2022-08-03T13:39:58.054Z,37.70
2022-08-03T13:42:24.379Z,37.79
2022-08-03T13:44:52.393Z,37.65
2022-08-03T13:47:21.127Z,37.69
2022-08-03T13:50:00.207Z,37.80
2022-08-03T13:52:32.254Z,37.79
2022-08-03T13:55:00.304Z,37.85
2022-08-03T13:58:03.129Z,38.05
2022-08-03T14:00:27.657Z,38.08
2022-08-03T14:03:03.857Z,38.24
2022-08-03T14:05:35.740Z,38.38
2022-08-03T14:08:06.627Z,38.35
2022-08-03T14:10:36.187Z,38.27
2022-08-03T14:13:04.506Z,38.20
2022-08-03T14:15:32.388Z,38.23
2022-08-03T14:18:06.603Z,38.14
2022-08-03T14:20:38.868Z,37.90
2022-08-03T14:23:18.417Z,37.84
2022-08-03T14:25:52.425Z,37.86
2022-08-03T14:28:22.309Z,37.92
2022-08-03T14:30:50.789Z,37.97
2022-08-03T14:33:18.640Z,38.03
2022-08-03T14:35:46.424Z,38.16
2022-08-03T14:38:14.488Z,38.24
2022-08-03T14:40:43.860Z,38.13
2022-08-03T14:43:11.938Z,38.09
2022-08-03T14:45:39.764Z,37.97
2022-08-03T14:50:34.599Z,37.98
2022-08-03T14:50:56.754Z,37.93
2022-08-03T14:53:25.158Z,38.00
2022-08-03T14:55:54.218Z,37.79
2022-08-03T14:58:25.211Z,37.76
2022-08-03T15:00:54.332Z,37.67
2022-08-03T15:03:24.854Z,37.57
2022-08-03T15:05:53.447Z,37.55
2022-08-03T15:08:21.842Z,37.47
2022-08-03T15:10:49.763Z,37.40
2022-08-03T15:13:20.398Z,37.35
2022-08-03T15:15:49.547Z,37.27
2022-08-03T15:18:17.482Z,37.18
2022-08-03T15:20:46.605Z,37.17
2022-08-03T15:23:15.770Z,37.07
2022-08-03T15:26:30.291Z,36.92
2022-08-03T15:28:33.141Z,36.80
2022-08-03T15:31:00.942Z,36.68
2022-08-03T15:33:29.084Z,36.54
2022-08-03T15:35:57.471Z,36.53
2022-08-03T15:38:26.484Z,36.49
2022-08-03T15:40:55.306Z,36.39
2022-08-03T15:43:23.844Z,36.32
2022-08-03T15:46:26.625Z,36.27
2022-08-03T15:48:41.289Z,36.18
2022-08-03T15:51:09.707Z,36.13
2022-08-03T15:53:37.690Z,36.08
2022-08-03T15:56:11.409Z,36.04
2022-08-03T15:59:04.579Z,35.94
2022-08-03T16:01:30.369Z,35.83
2022-08-03T16:03:58.230Z,35.76
2022-08-03T16:06:29.733Z,35.69
2022-08-03T16:09:05.336Z,35.64
2022-08-03T16:11:33.169Z,35.56
2022-08-03T16:14:12.355Z,35.53
2022-08-03T16:16:50.200Z,35.52
2022-08-03T16:19:17.915Z,35.52
2022-08-03T16:21:48.788Z,35.46
2022-08-03T16:24:24.247Z,35.47
2022-08-03T16:26:55.865Z,35.34
2022-08-03T16:29:24.175Z,35.29
2022-08-03T16:31:53.832Z,35.25
2022-08-03T16:34:21.846Z,35.24
2022-08-03T16:36:49.627Z,35.17
2022-08-03T16:39:17.384Z,35.15
2022-08-03T16:41:54.078Z,35.11
2022-08-03T16:44:29.950Z,35.09
2022-08-03T16:46:59.600Z,35.02
2022-08-03T16:49:55.468Z,35.01
2022-08-03T16:52:17.901Z,34.96
2022-08-03T16:54:52.550Z,34.89
2022-08-03T16:57:29.897Z,34.84
2022-08-03T17:00:12.507Z,34.78
2022-08-03T17:03:19.170Z,34.74
2022-08-03T17:05:49.819Z,34.71
2022-08-03T17:08:26.132Z,34.68
2022-08-03T17:10:54.962Z,34.67
2022-08-03T17:13:38.733Z,34.62
2022-08-03T17:16:09.517Z,34.57
2022-08-03T17:18:42.172Z,34.52
2022-08-03T17:21:16.566Z,34.48
2022-08-03T17:23:53.429Z,34.44
2022-08-03T17:26:24.611Z,34.44
2022-08-03T17:29:11.158Z,34.39
2022-08-03T17:31:48.907Z,34.31
2022-08-03T17:34:19.843Z,34.25
2022-08-03T17:37:05.582Z,34.22
2022-08-03T17:39:59.827Z,34.19
2022-08-03T17:42:30.241Z,34.16
2022-08-03T17:45:02.414Z,34.12
2022-08-03T17:47:41.447Z,34.08
2022-08-03T17:50:25.026Z,34.03
2022-08-03T17:53:07.569Z,33.99
2022-08-03T17:55:55.891Z,33.93
2022-08-03T17:58:43.643Z,33.89
2022-08-03T18:01:59.996Z,33.84
2022-08-03T18:04:30.334Z,33.76
2022-08-03T18:07:11.751Z,33.70
2022-08-03T18:10:03.485Z,33.64
2022-08-03T18:12:41.477Z,33.59
2022-08-03T18:15:21.462Z,33.52
2022-08-03T18:17:58.288Z,33.47
2022-08-03T18:20:41.201Z,33.43
2022-08-03T18:23:25.168Z,33.37
2022-08-03T18:26:02.462Z,33.33
2022-08-03T18:28:33.617Z,33.25
2022-08-03T18:31:06.057Z,33.16
2022-08-03T18:34:16.858Z,33.11
2022-08-03T18:36:30.548Z,33.05
2022-08-03T18:39:02.620Z,32.98
2022-08-03T18:41:32.067Z,32.90
2022-08-03T18:44:08.222Z,32.81
2022-08-03T18:46:57.752Z,32.73
2022-08-03T18:49:41.401Z,32.65
2022-08-03T18:52:17.940Z,32.60
2022-08-03T18:55:09.543Z,32.52
2022-08-03T18:57:46.570Z,32.38
2022-08-03T19:00:17.485Z,32.27
2022-08-03T19:02:58.612Z,32.22
2022-08-03T19:05:56.410Z,32.15
2022-08-03T19:08:17.893Z,32.09
2022-08-03T19:10:57.720Z,32.03
2022-08-03T19:13:36.630Z,31.95
2022-08-03T19:16:08.554Z,31.88
2022-08-03T19:18:38.857Z,31.82
2022-08-03T19:21:15.686Z,31.75
2022-08-03T19:23:46.000Z,31.69
2022-08-03T19:29:14.935Z,31.51
2022-08-03T19:31:59.456Z,31.43
2022-08-03T19:34:28.824Z,31.38
2022-08-03T19:36:58.192Z,31.31
2022-08-03T19:39:26.925Z,31.26
2022-08-03T19:42:08.014Z,31.18
2022-08-03T19:44:41.662Z,31.07
2022-08-03T19:47:17.122Z,30.99
2022-08-03T19:49:57.095Z,30.88
2022-08-03T19:52:36.011Z,30.76
2022-08-03T19:55:09.541Z,30.68
2022-08-03T19:57:45.644Z,30.56
2022-08-03T20:00:18.505Z,30.50
2022-08-03T20:02:46.514Z,30.40
2022-08-03T20:05:15.867Z,30.29
2022-08-03T20:07:47.714Z,30.21
2022-08-03T20:10:17.739Z,30.15
2022-08-03T20:12:48.423Z,30.06
2022-08-03T20:15:22.372Z,29.96
2022-08-03T20:17:59.417Z,29.80
2022-08-03T20:20:29.754Z,29.66
2022-08-03T20:22:59.308Z,29.45
2022-08-03T20:28:26.659Z,29.17
2022-08-03T20:30:54.762Z,29.10
2022-08-03T20:33:27.792Z,29.06
2022-08-03T20:36:11.331Z,29.01
2022-08-03T20:38:43.625Z,28.93
2022-08-03T20:41:11.730Z,28.83
2022-08-03T20:43:41.799Z,28.73
2022-08-03T20:46:35.384Z,28.67
2022-08-03T20:48:58.969Z,28.60
2022-08-03T20:51:49.201Z,28.51
2022-08-03T20:54:29.838Z,28.44
2022-08-03T20:57:00.176Z,28.36
2022-08-03T20:59:47.045Z,28.30
2022-08-03T21:02:28.678Z,28.23
2022-08-03T21:04:57.212Z,28.13
2022-08-03T21:07:25.304Z,28.02
2022-08-03T21:10:15.856Z,27.98
2022-08-03T21:12:51.779Z,27.91
2022-08-03T21:13:02.203Z,31.60
2022-08-03T21:13:06.786Z,29.29
2022-08-03T21:16:06.538Z,27.83
2022-08-03T21:18:15.752Z,27.75
2022-08-03T21:20:46.048Z,27.72
2022-08-03T21:23:35.192Z,27.72
2022-08-03T21:26:04.803Z,27.69
2022-08-03T21:28:32.780Z,27.70
2022-08-03T21:31:02.698Z,27.67
2022-08-03T21:33:30.773Z,27.60
2022-08-03T21:35:59.142Z,27.52
2022-08-03T21:38:30.155Z,27.40
2022-08-03T21:40:58.573Z,27.34
2022-08-03T21:43:26.490Z,27.31
2022-08-03T21:45:58.724Z,27.21
2022-08-03T21:48:28.735Z,27.15
2022-08-03T21:50:56.610Z,27.11
2022-08-03T21:53:28.078Z,27.10
2022-08-03T21:56:19.931Z,27.05
2022-08-03T21:58:51.597Z,27.00
2022-08-03T22:01:20.986Z,26.94
2022-08-03T22:03:54.016Z,26.94
2022-08-03T22:06:22.169Z,26.88
2022-08-03T22:08:52.670Z,26.82
2022-08-03T22:11:20.611Z,26.73
2022-08-03T22:13:48.790Z,26.63
2022-08-03T22:16:17.163Z,26.55
2022-08-03T22:18:46.928Z,26.50
2022-08-03T22:21:28.009Z,26.49
2022-08-03T22:24:06.472Z,26.48
2022-08-03T22:26:36.535Z,26.45
2022-08-03T22:29:08.706Z,26.41
2022-08-03T22:31:57.746Z,26.33
2022-08-03T22:34:27.340Z,26.30
2022-08-03T22:37:02.547Z,26.28
2022-08-03T22:39:31.618Z,26.28
2022-08-03T22:41:59.865Z,26.28
2022-08-03T22:44:28.349Z,26.23
2022-08-03T22:46:56.829Z,26.22
2022-08-03T22:49:25.221Z,26.19
2022-08-03T22:51:53.763Z,26.18
2022-08-03T22:54:24.045Z,26.17
2022-08-03T22:56:52.615Z,26.10
2022-08-03T22:59:39.746Z,26.05
2022-08-03T23:02:15.017Z,25.97
2022-08-03T23:04:51.544Z,25.96
2022-08-03T23:07:27.981Z,25.91
2022-08-03T23:09:58.434Z,25.89
2022-08-03T23:12:29.460Z,25.90
2022-08-03T23:15:02.342Z,25.90
2022-08-03T23:17:31.817Z,25.87
2022-08-03T23:20:05.072Z,25.83
2022-08-03T23:22:34.586Z,25.79
2022-08-03T23:25:04.753Z,25.72
2022-08-03T23:27:34.003Z,25.71
2022-08-03T23:30:03.188Z,25.69
2022-08-03T23:32:31.929Z,25.66
2022-08-03T23:35:19.503Z,25.65
2022-08-03T23:38:21.295Z,25.63
2022-08-03T23:40:38.396Z,25.65
2022-08-03T23:43:06.551Z,25.66
2022-08-03T23:45:36.645Z,25.67
2022-08-03T23:48:04.543Z,25.62
2022-08-03T23:50:50.089Z,25.60
2022-08-03T23:53:22.643Z,25.57
2022-08-03T23:56:09.144Z,25.53
2022-08-03T23:58:48.307Z,25.51
